Time;durP1;ratioP1;P1;durP2;ratioP2;P2;SDS_P1;SDS_P2;PMS_P1;PMS_P2;Temp;Humidity;BMP_temperature;BMP_pressure;BME280_temperature;BME280_humidity;BME280_pressure;Samples;Min_cycle;Max_cycle;Signal;HPM_P1;HPM_P2
2021/12/17 03:24:27;;;;;;;7.60;3.33;;;;;;;6.83;100.00;104474.81;5018829;23;20495;-82
2021/12/17 03:26:52;;;;;;;4.38;3.97;;;;;;;6.84;100.00;104476.63;4935475;29;20031;-82
2021/12/17 03:29:18;;;;;;;5.07;4.68;;;;;;;6.85;100.00;104484.59;4935563;29;20027;-82
2021/12/17 03:31:43;;;;;;;7.47;3.53;;;;;;;6.79;100.00;104486.13;4936332;29;20035;-83
2021/12/17 03:34:20;;;;;;;5.15;4.38;;;;;;;6.81;100.00;104487.97;4935122;29;20087;-83
2021/12/17 03:36:48;;;;;;;3.40;3.10;;;;;;;6.82;100.00;104494.16;4936056;29;20545;-82
2021/12/17 03:39:14;;;;;;;5.43;3.45;;;;;;;6.77;100.00;104482.53;4935011;29;20344;-82
2021/12/17 03:41:50;;;;;;;6.93;6.22;;;;;;;6.81;100.00;104492.34;4935815;29;20027;-83
2021/12/17 03:44:15;;;;;;;5.40;4.18;;;;;;;6.81;100.00;104487.97;4901925;29;20040;-83
2021/12/17 03:47:16;;;;;;;11.00;3.45;;;;;;;6.84;100.00;104490.69;4935312;29;20368;-82
2021/12/17 03:49:43;;;;;;;5.53;3.25;;;;;;;6.91;100.00;104495.34;4934848;29;20039;-82
2021/12/17 03:52:46;;;;;;;5.53;3.30;;;;;;;6.88;100.00;104486.41;4909139;29;20040;-82
2021/12/17 03:55:53;;;;;;;4.75;3.80;;;;;;;6.87;100.00;104487.28;4839705;29;20418;-82
2021/12/17 03:58:28;;;;;;;4.47;3.97;;;;;;;6.90;100.00;104485.59;4812892;29;20038;-82
2021/12/17 04:00:53;;;;;;;7.38;3.35;;;;;;;6.91;100.00;104491.78;4839956;29;20042;-82
2021/12/17 04:03:25;;;;;;;4.45;4.03;;;;;;;6.90;100.00;104490.88;4840680;29;20411;-82
2021/12/17 04:05:51;;;;;;;10.65;3.60;;;;;;;6.89;100.00;104499.66;4840354;29;20432;-82
2021/12/17 04:08:17;;;;;;;7.18;6.38;;;;;;;6.93;100.00;104501.56;4842491;29;20040;-82
2021/12/17 04:10:47;;;;;;;8.95;4.10;;;;;;;6.93;100.00;104505.94;4916394;29;20114;-82
2021/12/17 04:15:57;;;;;;;5.60;3.42;;;;;;;6.95;100.00;104509.53;4919095;29;19919;-82
2021/12/17 04:18:58;;;;;;;9.25;5.28;;;;;;;6.95;100.00;104514.81;4919953;29;20051;-82
2021/12/17 04:21:32;;;;;;;8.63;4.20;;;;;;;6.97;100.00;104513.09;4919652;29;20099;-82
2021/12/17 04:23:58;;;;;;;8.10;3.75;;;;;;;6.96;100.00;104508.69;4920377;29;20399;-82
2021/12/17 04:26:30;;;;;;;8.00;5.63;;;;;;;7.08;100.00;104515.22;4938291;29;20053;-82
2021/12/17 04:29:11;;;;;;;5.25;4.53;;;;;;;7.04;100.00;104508.06;4938262;29;20071;-83
2021/12/17 04:31:36;;;;;;;6.38;5.78;;;;;;;7.00;100.00;104518.47;4939207;29;20107;-82
2021/12/17 04:34:12;;;;;;;10.82;6.22;;;;;;;6.93;100.00;104511.22;4937776;29;20103;-82
2021/12/17 04:36:38;;;;;;;10.10;6.45;;;;;;;6.96;100.00;104516.59;4934428;29;20462;-83
2021/12/17 04:43:11;;;;;;;4.85;4.47;;;;;;;7.00;100.00;104481.47;4862773;29;20074;-82
2021/12/17 04:57:55;;;;;;;4.20;2.42;;;;;;;6.91;100.00;104507.63;4928749;29;20137;-83
2021/12/17 05:00:49;;;;;;;3.75;3.45;;;;;;;7.13;100.00;104508.34;4917940;29;20369;-83
2021/12/17 05:03:20;;;;;;;4.15;3.40;;;;;;;7.01;100.00;104517.66;4921693;29;20035;-82
2021/12/17 05:05:54;;;;;;;4.80;3.80;;;;;;;7.02;100.00;104519.44;4933159;29;20154;-82
2021/12/17 05:08:22;;;;;;;2.40;1.83;;;;;;;6.93;100.00;104517.44;4906359;29;20052;-82
2021/12/17 05:11:14;;;;;;;4.18;2.50;;;;;;;7.00;100.00;104515.84;4925627;29;20062;-82
2021/12/17 05:19:17;;;;;;;2.88;2.50;;;;;;;6.97;100.00;104507.81;4918614;29;20063;-83
2021/12/17 05:21:43;;;;;;;4.50;1.95;;;;;;;7.08;100.00;104499.38;4918741;29;20029;-84
2021/12/17 05:24:09;;;;;;;3.40;3.15;;;;;;;6.95;100.00;104501.63;4921241;29;20115;-83
2021/12/17 05:26:36;;;;;;;6.28;3.88;;;;;;;6.97;100.00;104498.16;4936548;29;20023;-82
2021/12/17 05:29:02;;;;;;;6.20;3.05;;;;;;;6.93;100.00;104476.88;4937622;29;20023;-81
2021/12/17 05:31:28;;;;;;;2.38;2.17;;;;;;;6.98;100.00;104457.66;4937701;29;20035;-83
2021/12/17 05:33:54;;;;;;;4.53;2.80;;;;;;;7.06;100.00;104477.28;4937189;29;20400;-82
2021/12/17 05:36:23;;;;;;;4.82;2.28;;;;;;;6.99;100.00;104483.25;4937273;29;20078;-82
2021/12/17 05:38:48;;;;;;;4.47;2.55;;;;;;;6.89;100.00;104485.53;4937074;29;20027;-82
2021/12/17 05:41:14;;;;;;;5.82;2.30;;;;;;;6.91;100.00;104474.19;4937505;29;20039;-82
2021/12/17 05:43:39;;;;;;;1.83;1.73;;;;;;;6.91;100.00;104486.50;4937273;29;20046;-81
2021/12/17 05:46:11;;;;;;;2.00;1.88;;;;;;;6.88;100.00;104486.41;4937076;29;20107;-82
2021/12/17 05:48:38;;;;;;;2.42;2.22;;;;;;;6.89;100.00;104459.13;4936473;29;20023;-84
2021/12/17 05:51:09;;;;;;;3.03;2.70;;;;;;;6.92;100.00;104478.63;4929897;29;20041;-82
2021/12/17 05:53:34;;;;;;;3.35;2.08;;;;;;;7.05;100.00;104477.22;4917926;29;20482;-82
2021/12/17 05:56:02;;;;;;;1.45;1.25;;;;;;;6.97;100.00;104473.47;4918487;29;20031;-82
2021/12/17 05:58:29;;;;;;;3.33;2.38;;;;;;;6.95;100.00;104473.41;4918087;29;20035;-81
2021/12/17 06:00:57;;;;;;;5.03;2.67;;;;;;;6.97;100.00;104470.81;4917608;29;20020;-82
2021/12/17 06:03:23;;;;;;;3.85;2.53;;;;;;;6.89;100.00;104464.41;4918536;29;20087;-82
2021/12/17 06:05:49;;;;;;;3.50;3.28;;;;;;;6.88;100.00;104465.28;4918519;29;20028;-82
2021/12/17 06:08:14;;;;;;;3.20;2.75;;;;;;;6.91;100.00;104465.34;4918036;29;20028;-82
2021/12/17 06:10:40;;;;;;;1.98;1.75;;;;;;;6.94;100.00;104460.16;4904611;29;20394;-81
2021/12/17 06:13:06;;;;;;;2.85;2.58;;;;;;;6.95;100.00;104459.34;4921412;29;20028;-81
2021/12/17 06:15:31;;;;;;;5.10;2.30;;;;;;;6.95;100.00;104451.41;4937440;29;20030;-81
2021/12/17 06:17:56;;;;;;;2.38;2.20;;;;;;;6.86;100.00;104454.66;4939542;29;20027;-82
2021/12/17 06:20:24;;;;;;;3.47;2.42;;;;;;;6.88;100.00;104454.69;4938511;29;20031;-81
2021/12/17 06:22:52;;;;;;;3.35;3.05;;;;;;;6.88;100.00;104457.34;4936098;29;20582;-82
2021/12/17 06:25:18;;;;;;;2.15;1.38;;;;;;;6.90;100.00;104453.88;4936071;29;20039;-83
2021/12/17 06:27:53;;;;;;;4.40;3.30;;;;;;;6.98;100.00;104456.78;4936897;29;20027;-83
2021/12/17 06:30:20;;;;;;;2.30;2.10;;;;;;;6.96;100.00;104448.81;4936621;29;20027;-81
2021/12/17 06:32:52;;;;;;;2.20;2.00;;;;;;;6.94;100.00;104442.56;4935786;29;20086;-82
2021/12/17 06:35:18;;;;;;;3.88;2.90;;;;;;;7.00;100.00;104434.81;4935780;29;20040;-82
2021/12/17 06:37:46;;;;;;;5.00;2.08;;;;;;;6.96;100.00;104432.03;4935928;29;20077;-82
2021/12/17 06:40:13;;;;;;;2.45;1.17;;;;;;;6.99;100.00;104421.56;4936390;29;20105;-81
2021/12/17 06:42:39;;;;;;;3.53;3.22;;;;;;;7.00;100.00;104403.09;4935788;29;20028;-81
2021/12/17 06:45:13;;;;;;;2.92;2.38;;;;;;;7.06;100.00;104387.41;4936550;29;20028;-80
2021/12/17 06:47:39;;;;;;;3.75;2.65;;;;;;;7.02;100.00;104374.06;4936620;29;20487;-81
2021/12/17 07:06:12;;;;;;;2.03;1.92;;;;;;;6.99;100.00;104358.13;4935324;29;20063;-82
2021/12/17 07:17:08;;;;;;;1.77;1.67;;;;;;;6.95;100.00;104351.00;4933924;29;20040;-83
2021/12/17 07:22:27;;;;;;;1.85;1.75;;;;;;;6.99;100.00;104352.84;4936126;29;20102;-81
2021/12/17 07:33:03;;;;;;;2.20;1.63;;;;;;;6.97;100.00;104354.53;4935650;29;20028;-81
2021/12/17 07:40:49;;;;;;;6.45;1.55;;;;;;;6.94;100.00;104352.72;4936039;29;20050;-81
2021/12/17 07:43:24;;;;;;;3.33;1.73;;;;;;;6.95;100.00;104351.84;4935405;29;20456;-81
2021/12/17 07:45:50;;;;;;;1.25;1.15;;;;;;;6.98;100.00;104356.34;4935261;29;20024;-81
2021/12/17 07:48:15;;;;;;;2.55;1.73;;;;;;;7.05;100.00;104366.22;4935214;29;20035;-81
2021/12/17 07:50:41;;;;;;;2.60;1.70;;;;;;;7.01;100.00;104364.38;4939298;29;20027;-80
2021/12/17 07:53:10;;;;;;;2.30;1.85;;;;;;;7.03;100.00;104368.81;4938320;29;20122;-81
2021/12/17 07:55:35;;;;;;;1.65;1.55;;;;;;;6.98;100.00;104362.50;4939100;29;20028;-81
2021/12/17 07:58:00;;;;;;;2.75;1.60;;;;;;;6.99;100.00;104371.34;4939084;29;20039;-81
2021/12/17 08:00:27;;;;;;;3.42;2.33;;;;;;;7.02;100.00;104360.84;4937754;29;20043;-78
2021/12/17 08:02:55;;;;;;;5.47;2.75;;;;;;;7.02;100.00;104367.06;4937640;29;20039;-82
2021/12/17 08:05:20;;;;;;;7.00;2.03;;;;;;;7.03;100.00;104362.63;4932799;29;20028;-79
2021/12/17 08:07:46;;;;;;;1.48;1.30;;;;;;;7.03;100.00;104367.91;4927243;29;20039;-80
2021/12/17 08:10:11;;;;;;;2.33;1.67;;;;;;;6.98;100.00;104366.94;4934240;29;20035;-82
2021/12/17 08:12:37;;;;;;;2.78;1.33;;;;;;;7.00;100.00;104366.09;4920229;29;20495;-81
2021/12/17 08:15:05;;;;;;;3.83;1.52;;;;;;;7.03;100.00;104367.91;4911129;29;20130;-82
2021/12/17 08:25:31;;;;;;;2.50;1.55;;;;;;;7.11;100.00;104375.22;4919860;29;20103;-83
2021/12/17 08:28:08;;;;;;;4.57;1.75;;;;;;;7.12;100.00;104366.44;4928244;29;20050;-82
2021/12/17 08:30:47;;;;;;;3.90;1.35;;;;;;;7.08;100.00;104356.63;4926400;29;20028;-83
2021/12/17 08:33:18;;;;;;;1.40;1.02;;;;;;;7.11;100.00;104353.19;4920692;29;20036;-82
2021/12/17 08:35:44;;;;;;;1.35;1.25;;;;;;;7.16;100.00;104351.56;4919608;29;20107;-83
2021/12/17 08:38:09;;;;;;;7.72;1.83;;;;;;;7.23;100.00;104349.13;4919332;29;20059;-83
2021/12/17 08:40:35;;;;;;;1.70;1.40;;;;;;;7.28;100.00;104351.91;4919297;29;20020;-83
2021/12/17 08:43:01;;;;;;;2.75;2.42;;;;;;;7.36;100.00;104356.53;4920182;29;20130;-82
2021/12/17 08:45:27;;;;;;;3.08;2.70;;;;;;;7.36;100.00;104356.53;4937943;29;20508;-82
2021/12/17 08:47:52;;;;;;;1.67;1.35;;;;;;;7.32;100.00;104348.47;4930225;29;20036;-82
2021/12/17 08:50:21;;;;;;;2.42;2.17;;;;;;;7.32;100.00;104343.19;4927469;29;20453;-83
2021/12/17 08:52:47;;;;;;;1.35;1.25;;;;;;;7.30;100.00;104345.78;4919768;29;20028;-82
2021/12/17 08:55:12;;;;;;;1.52;1.27;;;;;;;7.34;100.00;104352.94;4918512;29;20191;-82
2021/12/17 08:57:39;;;;;;;2.40;2.20;;;;;;;7.40;100.00;104349.56;4919237;29;20020;-82
2021/12/17 09:00:08;;;;;;;5.68;2.55;;;;;;;7.55;100.00;104336.72;4910907;29;20032;-83
2021/12/17 09:02:36;;;;;;;3.45;2.38;;;;;;;7.57;100.00;104354.44;4925155;29;20040;-82
2021/12/17 09:05:04;;;;;;;3.85;1.40;;;;;;;7.71;100.00;104350.41;4929960;29;20038;-81
2021/12/17 09:07:30;;;;;;;3.50;2.05;;;;;;;7.75;100.00;104343.44;4935326;29;20030;-80
2021/12/17 09:09:55;;;;;;;2.35;1.50;;;;;;;7.74;100.00;104349.56;4927419;29;20053;-81
2021/12/17 09:12:21;;;;;;;2.25;2.03;;;;;;;7.80;100.00;104349.69;4931603;29;20094;-81
2021/12/17 09:14:47;;;;;;;1.10;1.05;;;;;;;7.77;100.00;104339.03;4937381;29;20035;-81
2021/12/17 09:17:12;;;;;;;4.00;2.05;;;;;;;7.85;100.00;104340.13;4927159;29;20036;-82
2021/12/17 09:19:38;;;;;;;1.90;1.02;;;;;;;7.87;100.00;104330.47;4923300;29;20020;-81
2021/12/17 09:22:04;;;;;;;2.90;0.98;;;;;;;7.92;100.00;104336.78;4918868;29;20035;-81
2021/12/17 09:24:30;;;;;;;3.28;2.75;;;;;;;7.93;100.00;104330.63;4920638;29;20040;-80
2021/12/17 09:26:55;;;;;;;2.38;1.67;;;;;;;8.01;100.00;104337.00;4935452;29;20020;-80
2021/12/17 09:29:21;;;;;;;3.55;2.33;;;;;;;7.98;100.00;104328.06;4947445;29;20032;-80
2021/12/17 09:31:46;;;;;;;2.67;1.27;;;;;;;8.06;100.00;104324.75;4931860;29;20106;-80
2021/12/17 09:34:12;;;;;;;2.40;1.67;;;;;;;8.04;100.00;104328.22;4936179;29;20527;-80
2021/12/17 09:36:37;;;;;;;1.27;1.00;;;;;;;8.03;100.00;104330.00;4919564;29;20052;-80
2021/12/17 09:39:03;;;;;;;3.22;1.35;;;;;;;8.12;100.00;104338.13;4927063;29;20036;-81
2021/12/17 09:41:30;;;;;;;3.13;2.15;;;;;;;8.19;100.00;104328.59;4936743;29;20487;-80
2021/12/17 09:43:55;;;;;;;1.23;1.13;;;;;;;8.21;100.00;104329.53;4936403;29;20027;-80
2021/12/17 09:46:21;;;;;;;3.15;1.42;;;;;;;8.27;100.00;104316.44;4936656;29;20031;-80
2021/12/17 09:48:48;;;;;;;6.15;2.08;;;;;;;8.26;100.00;104310.25;4929361;29;20499;-80
2021/12/17 09:51:16;;;;;;;2.53;1.10;;;;;;;8.31;100.00;104319.19;4936546;29;20039;-81
2021/12/17 09:53:42;;;;;;;3.40;1.67;;;;;;;8.39;100.00;104307.00;4937106;29;20027;-81
2021/12/17 09:56:07;;;;;;;4.20;2.58;;;;;;;8.26;100.00;104291.72;4933921;29;20023;-82
2021/12/17 09:58:33;;;;;;;2.85;1.33;;;;;;;8.35;100.00;104286.59;4924017;29;20067;-82
2021/12/17 10:00:59;;;;;;;3.10;1.90;;;;;;;8.49;100.00;104282.50;4936315;29;20032;-82
2021/12/17 10:03:26;;;;;;;2.45;1.13;;;;;;;8.66;100.00;104267.84;4936008;29;20047;-82
2021/12/17 10:05:51;;;;;;;1.75;1.35;;;;;;;8.64;100.00;104258.06;4936514;29;20079;-83
2021/12/17 10:08:19;;;;;;;3.85;1.38;;;;;;;8.70;100.00;104229.00;4936203;29;20027;-82
2021/12/17 10:10:46;;;;;;;2.33;0.90;;;;;;;8.68;100.00;104230.78;4929644;29;20106;-82
2021/12/17 10:13:14;;;;;;;4.50;2.05;;;;;;;8.74;100.00;104229.13;4917778;29;20064;-82
2021/12/17 10:15:42;;;;;;;3.55;1.63;;;;;;;8.66;100.00;104228.09;4931574;29;20387;-83
2021/12/17 10:18:08;;;;;;;3.47;2.00;;;;;;;8.78;100.00;104230.97;4920695;29;20052;-83
2021/12/17 10:20:40;;;;;;;1.73;1.35;;;;;;;8.80;100.00;104221.28;4935971;29;20063;-83
2021/12/17 10:23:09;;;;;;;3.17;1.83;;;;;;;8.76;100.00;104223.84;4933687;29;20035;-81
2021/12/17 10:25:43;;;;;;;2.45;1.45;;;;;;;8.77;100.00;104215.94;4922189;29;20038;-81
2021/12/17 10:28:09;;;;;;;1.65;0.93;;;;;;;8.68;100.00;104215.75;4918116;29;20119;-81
2021/12/17 10:30:37;;;;;;;6.07;2.50;;;;;;;8.78;100.00;104208.84;4918590;29;20032;-81
2021/12/17 10:33:06;;;;;;;1.75;1.33;;;;;;;8.91;100.00;104213.53;4918727;29;20028;-82
2021/12/17 10:35:45;;;;;;;2.83;1.02;;;;;;;8.78;100.00;104211.50;4917715;29;20448;-82
2021/12/17 10:38:17;;;;;;;1.55;0.98;;;;;;;8.79;100.00;104208.88;4919967;29;20024;-81
2021/12/17 10:40:51;;;;;;;1.30;0.77;;;;;;;8.54;100.00;104209.28;4936255;29;20030;-81
2021/12/17 10:43:28;;;;;;;1.90;1.13;;;;;;;8.67;100.00;104208.66;4919141;29;20032;-81
2021/12/17 10:46:00;;;;;;;2.10;1.02;;;;;;;8.56;100.00;104198.72;4916781;29;20044;-82
2021/12/17 10:48:48;;;;;;;2.17;1.00;;;;;;;8.58;100.00;104205.84;4924209;29;20502;-82
2021/12/17 10:54:21;;;;;;;2.92;1.17;;;;;;;8.51;100.00;104211.88;4933289;29;20123;-82
2021/12/17 10:56:55;;;;;;;4.10;2.10;;;;;;;8.42;100.00;104200.22;4916639;29;20111;-82
2021/12/17 10:59:23;;;;;;;3.42;3.13;;;;;;;8.39;100.00;104203.72;4926392;29;20134;-83
2021/12/17 11:02:05;;;;;;;1.90;1.27;;;;;;;8.44;100.00;104199.41;4925577;29;20481;-83
2021/12/17 11:04:43;;;;;;;2.80;1.10;;;;;;;8.45;100.00;104195.88;4922443;29;20039;-82
2021/12/17 11:07:13;;;;;;;0.90;0.60;;;;;;;8.47;100.00;104199.47;4916689;29;20079;-83
2021/12/17 11:09:57;;;;;;;0.70;0.70;;;;;;;8.34;100.00;104194.78;4916454;29;20104;-83
2021/12/17 11:12:39;;;;;;;3.72;2.00;;;;;;;8.27;100.00;104195.53;4921918;29;20031;-83
2021/12/17 11:15:10;;;;;;;0.55;0.50;;;;;;;8.28;100.00;104197.31;4921302;29;20433;-80
2021/12/17 11:17:37;;;;;;;0.93;0.77;;;;;;;8.29;100.00;104199.09;4927387;29;20031;-83
2021/12/17 11:20:18;;;;;;;1.85;0.80;;;;;;;8.19;100.00;104190.91;4909624;29;20050;-81
2021/12/17 14:37:37;;;;;;;1.33;0.90;;;;;;;7.54;100.00;104165.66;6182574;22;2239252;-85
2021/12/17 14:40:02;;;;;;;1.17;0.68;;;;;;;7.51;100.00;104171.78;6268227;22;20016;-84
2021/12/17 14:42:32;;;;;;;1.05;0.98;;;;;;;7.53;100.00;104164.75;6278089;22;20399;-83
2021/12/17 14:45:04;;;;;;;0.90;0.57;;;;;;;7.49;100.00;104165.56;6265859;22;20012;-84
2021/12/17 15:02:27;;;;;;;0.80;0.75;;;;;;;7.46;100.00;104154.03;6276484;22;20018;-85
2021/12/17 15:04:53;;;;;;;2.40;1.05;;;;;;;7.45;100.00;104146.97;6276831;22;20043;-85
2021/12/17 15:07:20;;;;;;;1.15;1.05;;;;;;;7.47;100.00;104147.88;6276720;22;20018;-85
2021/12/17 15:09:46;;;;;;;1.73;0.95;;;;;;;7.53;100.00;104140.97;6276832;22;20004;-85
2021/12/17 15:12:35;;;;;;;1.80;0.95;;;;;;;7.47;100.00;104137.28;6276377;22;20386;-85
2021/12/17 15:14:58;;;;;;;0.65;0.63;;;;;;;7.61;100.00;104141.16;6276420;22;20007;-86
2021/12/17 15:17:24;;;;;;;1.55;0.85;;;;;;;7.51;100.00;104150.63;6276269;22;20137;-86
2021/12/17 15:19:50;;;;;;;1.75;0.82;;;;;;;7.56;100.00;104148.09;6276225;22;20023;-86
2021/12/17 15:22:27;;;;;;;1.60;0.98;;;;;;;7.52;100.00;104152.41;6276144;22;20026;-86
2021/12/17 15:24:53;;;;;;;1.63;0.80;;;;;;;7.45;100.00;104144.31;6249817;22;20323;-86
2021/12/17 15:27:22;;;;;;;1.50;1.17;;;;;;;7.56;100.00;104148.09;6276198;22;20004;-85
2021/12/17 15:30:27;;;;;;;1.13;0.80;;;;;;;7.46;100.00;104151.38;6276473;22;20004;-87
2021/12/17 15:32:55;;;;;;;3.63;1.48;;;;;;;7.42;100.00;104150.41;6277174;22;20477;-86
2021/12/17 15:35:33;;;;;;;1.35;0.70;;;;;;;7.41;100.00;104151.28;6274770;22;20047;-86
2021/12/17 15:38:08;;;;;;;1.73;1.10;;;;;;;7.47;100.00;104147.88;6276900;22;20083;-86
2021/12/17 15:41:17;;;;;;;1.42;1.33;;;;;;;7.48;100.00;104150.56;6259871;22;20031;-87
2021/12/17 15:43:43;;;;;;;1.33;1.05;;;;;;;7.50;100.00;104158.53;6275421;22;20003;-87
2021/12/17 15:46:20;;;;;;;1.55;1.17;;;;;;;7.39;100.00;104149.47;6276714;22;19996;-86
2021/12/17 15:55:23;;;;;;;3.30;1.23;;;;;;;7.54;100.00;104155.09;6276614;22;20087;-87
2021/12/17 15:58:02;;;;;;;1.60;1.20;;;;;;;7.39;100.00;104155.63;6276150;22;20015;-87
2021/12/17 16:01:01;;;;;;;1.60;1.00;;;;;;;7.38;100.00;104147.66;6277257;22;20030;-86
2021/12/17 16:03:38;;;;;;;1.92;0.88;;;;;;;7.36;100.00;104155.56;6277030;22;20008;-87
2021/12/17 16:06:21;;;;;;;1.80;1.10;;;;;;;7.35;100.00;104147.59;6275989;22;20015;-86
2021/12/17 16:09:08;;;;;;;1.98;1.02;;;;;;;7.36;100.00;104159.94;6276370;22;20004;-86
2021/12/17 16:23:40;;;;;;;1.88;1.15;;;;;;;7.38;100.00;104138.00;6155449;23;20025;-87
2021/12/17 16:26:34;;;;;;;2.35;1.15;;;;;;;7.37;100.00;104130.03;6154800;23;20089;-87
2021/12/17 16:29:02;;;;;;;2.80;1.55;;;;;;;7.35;100.00;104137.03;6155761;23;20009;-87
2021/12/17 16:31:39;;;;;;;2.10;1.42;;;;;;;7.41;100.00;104145.09;6155147;23;20021;-86
2021/12/17 16:34:05;;;;;;;1.15;0.90;;;;;;;7.39;100.00;104138.91;6154869;23;20013;-86
2021/12/17 16:36:59;;;;;;;1.10;0.93;;;;;;;7.36;100.00;104136.16;6141677;23;20028;-86
2021/12/17 16:39:42;;;;;;;3.00;0.98;;;;;;;7.36;100.00;104144.09;6125607;23;20069;-86
2021/12/17 16:42:19;;;;;;;2.15;1.42;;;;;;;7.45;100.00;104145.19;6125838;23;20006;-86
2021/12/17 16:45:21;;;;;;;1.73;1.30;;;;;;;7.40;100.00;104140.66;6125715;23;20010;-86
2021/12/17 16:47:56;;;;;;;1.35;0.55;;;;;;;7.39;100.00;104144.19;6126161;23;20458;-85
2021/12/17 16:50:41;;;;;;;1.58;1.30;;;;;;;7.41;100.00;104146.00;6127011;23;20013;-85
2021/12/17 16:53:06;;;;;;;0.80;0.65;;;;;;;7.42;100.00;104149.53;6246900;23;20004;-87
2021/12/17 16:58:42;;;;;;;0.50;0.45;;;;;;;7.49;100.00;104156.72;6231417;23;20094;-83
2021/12/17 17:01:07;;;;;;;3.17;1.20;;;;;;;7.44;100.00;104145.16;6245748;23;20079;-84
2021/12/17 17:03:33;;;;;;;2.15;1.35;;;;;;;7.53;100.00;104153.31;6247576;23;20079;-82
2021/12/17 17:05:59;;;;;;;2.90;1.20;;;;;;;7.48;100.00;104157.59;6247280;23;20049;-82
2021/12/17 17:08:25;;;;;;;1.60;0.95;;;;;;;7.45;100.00;104161.06;6221196;23;20363;-84
2021/12/17 17:14:13;;;;;;;1.63;1.15;;;;;;;7.56;100.00;104150.75;6245692;23;20097;-84
2021/12/17 17:16:42;;;;;;;1.45;1.10;;;;;;;7.46;100.00;104154.94;6245729;23;20003;-84
2021/12/17 17:22:06;;;;;;;1.75;1.20;;;;;;;7.38;100.00;104159.16;6247379;23;20015;-85
2021/12/17 17:24:59;;;;;;;2.42;1.13;;;;;;;7.41;100.00;104153.91;6247700;23;20065;-84
2021/12/17 17:27:32;;;;;;;1.23;0.90;;;;;;;7.37;100.00;104153.81;6247085;23;20063;-84
2021/12/17 17:30:04;;;;;;;1.00;0.90;;;;;;;7.42;100.00;104160.97;6247329;23;20007;-86
2021/12/17 17:36:10;;;;;;;1.45;0.75;;;;;;;7.42;100.00;104162.75;6251882;22;20124;-85
2021/12/17 17:38:45;;;;;;;3.63;1.58;;;;;;;7.41;100.00;104164.50;6244576;23;20044;-84
2021/12/17 17:45:19;;;;;;;0.98;0.88;;;;;;;7.42;100.00;104178.63;6246746;23;20058;-86
2021/12/17 17:47:53;;;;;;;4.25;0.80;;;;;;;7.48;100.00;104179.66;6247410;23;20332;-84
2021/12/17 17:50:39;;;;;;;2.47;1.13;;;;;;;7.48;100.00;104181.41;6245989;23;20004;-85
2021/12/17 17:53:20;;;;;;;1.65;1.30;;;;;;;7.47;100.00;104187.53;6247225;23;20000;-85
2021/12/17 17:55:50;;;;;;;3.08;1.20;;;;;;;7.49;100.00;104188.47;6244944;23;20054;-88
2021/12/17 17:58:25;;;;;;;1.95;1.52;;;;;;;7.47;100.00;104190.19;6242277;23;20015;-86
2021/12/17 18:01:03;;;;;;;2.17;1.48;;;;;;;7.47;100.00;104188.44;6246864;23;20005;-87
2021/12/17 18:03:29;;;;;;;2.53;1.38;;;;;;;7.62;100.00;104190.53;6246547;23;20007;-87
2021/12/17 18:06:22;;;;;;;3.70;2.17;;;;;;;7.58;100.00;104181.63;6246928;23;20000;-87
2021/12/17 18:09:09;;;;;;;2.97;1.00;;;;;;;7.54;100.00;104179.81;6247710;23;20015;-87
2021/12/17 18:22:06;;;;;;;1.58;1.45;;;;;;;7.49;100.00;104172.59;6118205;23;20048;-85
2021/12/17 18:24:32;;;;;;;1.83;1.60;;;;;;;7.49;100.00;104183.19;6246553;23;20036;-84
2021/12/17 18:27:10;;;;;;;1.80;1.45;;;;;;;7.63;100.00;104179.09;6245649;23;20008;-84
2021/12/17 18:29:46;;;;;;;3.03;1.45;;;;;;;7.66;100.00;104185.34;6245336;23;20079;-83
2021/12/17 18:32:11;;;;;;;2.83;2.28;;;;;;;7.60;100.00;104181.69;6246354;23;20028;-84
2021/12/17 18:34:37;;;;;;;4.35;2.17;;;;;;;7.64;100.00;104184.41;6245663;23;20000;-84
2021/12/17 18:37:26;;;;;;;3.50;1.42;;;;;;;7.59;100.00;104180.81;6257656;22;20016;-85
2021/12/17 18:40:05;;;;;;;;;;;;;;;7.59;100.00;104182.53;6277381;22;19999;-83
2021/12/17 18:45:51;;;;;;;;;;;;;;;7.57;100.00;104177.22;6277872;22;20026;-85
2021/12/17 18:52:09;;;;;;;1.75;1.10;;;;;;;7.55;100.00;104176.28;6277796;22;20023;-86
2021/12/17 18:54:34;;;;;;;3.33;1.23;;;;;;;7.49;100.00;104177.91;6277069;22;20488;-85
2021/12/17 18:57:44;;;;;;;2.75;1.92;;;;;;;7.53;100.00;104177.13;6276895;22;20000;-85
2021/12/17 19:04:05;;;;;;;2.58;1.15;;;;;;;7.53;100.00;104175.34;6278296;22;19914;-85
2021/12/17 19:06:55;;;;;;;1.73;1.30;;;;;;;7.54;100.00;104170.97;6280068;22;20012;-84
2021/12/17 19:09:33;;;;;;;2.03;1.30;;;;;;;7.51;100.00;104173.53;6252827;22;20027;-83
2021/12/17 19:43:26;;;;;;;4.03;2.67;;;;;;;7.56;100.00;104182.47;6153228;23;20630;-86
2021/12/17 19:56:25;;;;;;;2.70;1.98;;;;;;;7.56;100.00;104174.53;5967081;23;20034;-84
2021/12/17 20:02:50;;;;;;;4.05;1.65;;;;;;;7.52;100.00;104181.50;6010304;23;20030;-92
2021/12/17 20:05:20;;;;;;;3.97;2.30;;;;;;;7.51;100.00;104192.06;5984087;23;20397;-84
